KGYB

Details ICAO KGYB
Name GIDDINGS LEE CO
Region United States
Timezone America/Chicago (UTC-6.0)
Plans Departing 1
Arriving 1
Stats Elevation 485 ft / 148 m (AMSL)
Location 30.169266° -96.980018°
Runways 1
Magnetic Variation 3.421° E
Sunrise 2017-12-12 13:16:20 UTC / 2017-12-12 07:16:20 Local
Sunset 2017-12-12 23:30:04 UTC / 2017-12-12 17:30:04 Local
Advertisement - Login to hide

Runways

ID Width Length Bearing (true) Bearing (mag) Surface Threshold Offset Overrun Length
17 75 ft / 23 m 4,014 ft / 1,223 m 174.30° 170.88° Asphalt 0 ft / 0 m 0 ft / 0 m
35 75 ft / 23 m 4,014 ft / 1,223 m 354.30° 350.88° Asphalt 0 ft / 0 m 0 ft / 0 m

Map

Weather


0- 5 10 15 20 25 30 35+ Temperature / ° C

Clouds and Precipitation
Forecast for 2017-12-13 00:00 UTC. Updated 5 minutes ago

Ground ~20,000 ft ~40,000 ft Winds

METAR

KGYB 122115Z AUTO 36010G14KT 10SM CLR 15/M03 A3029 RMK AO2 T01531027

TAF

Not found

Frequencies

Recorded 119.22 MHz AWOS 3
Approach 132.15 MHz HOUSTON CNTR
Unicom 123.05 MHz CTAF/UNICOM
Warning: Do not use this data for real-world aviation or navigation. No guarantee of current accuracy is given.